createdAt,value
2018-06-10T00:01:37.371Z,23.16
2018-06-10T00:06:39.519Z,22.91
2018-06-10T00:11:41.692Z,22.93
2018-06-10T00:16:43.844Z,22.90
2018-06-10T00:21:45.970Z,22.88
2018-06-10T00:26:48.117Z,22.87
2018-06-10T00:31:50.586Z,22.81
2018-06-10T00:36:52.769Z,22.70
2018-06-10T00:41:54.913Z,22.71
2018-06-10T00:46:57.084Z,22.61
2018-06-10T00:51:59.294Z,22.53
2018-06-10T00:57:01.467Z,22.50
2018-06-10T01:02:03.591Z,22.42
2018-06-10T01:07:05.718Z,22.36
2018-06-10T01:12:07.898Z,22.29
2018-06-10T01:17:10.098Z,22.40
2018-06-10T01:22:12.207Z,22.50
2018-06-10T01:27:14.376Z,22.50
2018-06-10T01:32:16.514Z,22.42
2018-06-10T01:37:18.648Z,22.39
2018-06-10T01:42:20.788Z,22.35
2018-06-10T01:47:22.975Z,22.32
2018-06-10T01:52:25.143Z,22.23
2018-06-10T01:57:27.304Z,22.36
2018-06-10T02:02:29.441Z,22.30
2018-06-10T02:07:31.570Z,22.19
2018-06-10T02:12:33.710Z,22.23
2018-06-10T02:17:35.863Z,22.19
2018-06-10T02:22:38.014Z,22.13
2018-06-10T02:27:40.173Z,21.76
2018-06-10T02:32:42.320Z,22.03
2018-06-10T02:37:44.425Z,22.03
2018-06-10T02:42:46.702Z,22.12
2018-06-10T02:47:48.884Z,22.32
2018-06-10T02:52:51.053Z,22.54
2018-06-10T02:57:53.211Z,22.64
2018-06-10T03:02:55.347Z,22.46
2018-06-10T03:07:57.532Z,22.36
2018-06-10T03:12:59.665Z,22.49
2018-06-10T03:18:01.825Z,22.63
2018-06-10T03:23:04.068Z,22.58
2018-06-10T03:28:06.212Z,22.44
2018-06-10T03:33:08.360Z,22.13
2018-06-10T03:38:10.506Z,22.02
2018-06-10T03:43:12.651Z,22.07
2018-06-10T03:48:14.811Z,21.91
2018-06-10T03:53:16.956Z,21.86
2018-06-10T03:58:19.070Z,22.02
2018-06-10T04:03:21.191Z,22.04
2018-06-10T04:08:23.347Z,22.08
2018-06-10T04:13:25.471Z,22.03
2018-06-10T04:18:27.611Z,22.07
2018-06-10T04:23:29.726Z,22.28
2018-06-10T04:28:31.878Z,22.39
2018-06-10T04:33:33.978Z,22.34
2018-06-10T04:38:36.106Z,22.05
2018-06-10T04:43:38.237Z,21.76
2018-06-10T04:48:40.387Z,21.79
2018-06-10T04:53:42.548Z,21.81
2018-06-10T04:58:44.702Z,21.81
2018-06-10T05:03:46.851Z,21.99
2018-06-10T05:08:48.977Z,21.84
2018-06-10T05:13:51.133Z,21.84
2018-06-10T05:18:53.289Z,21.84
2018-06-10T05:23:55.469Z,21.89
2018-06-10T05:28:57.597Z,21.97
2018-06-10T05:34:00.052Z,22.08
2018-06-10T05:39:02.269Z,22.33
2018-06-10T05:44:04.723Z,22.44
2018-06-10T05:49:06.842Z,22.63
2018-06-10T05:54:09.011Z,22.80
2018-06-10T05:59:11.153Z,22.92
2018-06-10T06:04:13.294Z,22.92
2018-06-10T06:09:15.447Z,22.86
2018-06-10T06:14:17.613Z,22.82
2018-06-10T06:19:19.755Z,22.79
2018-06-10T06:24:21.929Z,22.88
2018-06-10T06:29:24.103Z,23.02
2018-06-10T06:34:26.217Z,23.14
2018-06-10T06:39:28.380Z,22.97
2018-06-10T06:44:30.544Z,23.08
2018-06-10T06:49:32.671Z,23.34
2018-06-10T06:54:34.876Z,23.37
2018-06-10T06:59:37.050Z,23.56
2018-06-10T07:04:39.208Z,23.63
2018-06-10T07:09:41.376Z,23.45
2018-06-10T07:14:43.569Z,23.55
2018-06-10T07:19:46.416Z,23.77
2018-06-10T07:24:49.327Z,23.88
2018-06-10T07:29:52.533Z,23.94
2018-06-10T07:34:55.441Z,23.79
2018-06-10T07:39:58.160Z,23.62
2018-06-10T07:45:01.217Z,23.28
2018-06-10T07:50:04.247Z,23.14
2018-06-10T07:55:07.830Z,23.09
2018-06-10T08:00:10.769Z,23.13
2018-06-10T08:05:14.493Z,23.24
2018-06-10T08:10:17.295Z,23.30
2018-06-10T08:15:20.063Z,23.37
2018-06-10T08:20:22.354Z,23.53
2018-06-10T08:25:25.847Z,23.74
2018-06-10T08:30:29.363Z,23.91
2018-06-10T08:35:32.798Z,23.94
2018-06-10T08:40:35.835Z,24.09
2018-06-10T08:45:39.293Z,24.35
2018-06-10T08:50:42.777Z,24.65
2018-06-10T08:55:46.479Z,24.44
2018-06-10T09:00:49.256Z,24.35
2018-06-10T09:05:51.998Z,24.25
2018-06-10T09:10:54.220Z,24.19
2018-06-10T09:15:56.458Z,24.06
2018-06-10T09:20:58.604Z,23.82
2018-06-10T09:26:00.768Z,23.47
2018-06-10T09:31:02.963Z,23.37
2018-06-10T09:36:05.127Z,23.40
2018-06-10T09:41:07.289Z,23.19
2018-06-10T09:46:09.464Z,22.92
2018-06-10T09:51:11.576Z,22.71
2018-06-10T09:56:13.774Z,22.51
2018-06-10T10:01:16.005Z,22.18
2018-06-10T10:06:18.182Z,22.36
2018-06-10T10:11:20.327Z,22.40
2018-06-10T10:16:22.521Z,22.23
2018-06-10T10:21:24.679Z,22.34
2018-06-10T10:26:26.860Z,22.44
2018-06-10T10:31:29.044Z,22.65
2018-06-10T10:36:31.205Z,22.67
2018-06-10T10:41:33.414Z,22.83
2018-06-10T10:46:35.585Z,22.93
2018-06-10T10:51:37.760Z,22.94
2018-06-10T10:56:39.961Z,22.99
2018-06-10T11:01:42.190Z,22.91
2018-06-10T11:06:44.388Z,23.00
2018-06-10T11:11:46.551Z,23.17
2018-06-10T11:16:48.802Z,23.07
2018-06-10T11:21:50.995Z,22.98
2018-06-10T11:26:53.172Z,22.99
2018-06-10T11:31:55.370Z,22.85
2018-06-10T11:36:57.563Z,22.61
2018-06-10T11:41:59.727Z,22.64
2018-06-10T11:47:02.368Z,22.55
2018-06-10T11:52:04.608Z,22.54
2018-06-10T11:57:06.896Z,22.70
2018-06-10T12:02:09.105Z,22.73
2018-06-10T12:07:11.301Z,22.56
2018-06-10T12:12:13.533Z,22.64
2018-06-10T12:17:15.822Z,22.85
2018-06-10T12:22:18.024Z,22.84
2018-06-10T12:27:20.229Z,22.93
2018-06-10T12:32:22.408Z,23.12
2018-06-10T12:37:24.584Z,23.32
2018-06-10T12:42:26.850Z,23.51
2018-06-10T12:47:29.040Z,23.66
2018-06-10T12:52:31.226Z,23.52
2018-06-10T12:57:33.468Z,23.53
2018-06-10T13:02:35.658Z,23.53
2018-06-10T13:07:37.835Z,23.83
2018-06-10T13:12:40.044Z,23.95
2018-06-10T13:17:42.258Z,24.06
2018-06-10T13:22:44.485Z,24.45
2018-06-10T13:27:46.641Z,24.48
2018-06-10T13:32:48.870Z,24.42
2018-06-10T13:37:51.041Z,24.60
2018-06-10T13:42:53.243Z,25.12
2018-06-10T13:47:55.443Z,25.13
2018-06-10T13:52:57.611Z,24.78
2018-06-10T13:57:59.853Z,24.63
2018-06-10T14:03:02.040Z,24.38
2018-06-10T14:08:04.312Z,24.24
2018-06-10T14:13:06.497Z,24.20
2018-06-10T14:18:08.757Z,24.04
2018-06-10T14:23:11.001Z,24.13
2018-06-10T14:28:13.160Z,23.88
2018-06-10T14:33:15.731Z,23.57
2018-06-10T14:38:17.962Z,23.73
2018-06-10T14:43:20.275Z,23.86
2018-06-10T14:48:22.633Z,23.76
2018-06-10T14:53:24.868Z,23.64
2018-06-10T14:58:27.084Z,23.12
2018-06-10T15:03:29.362Z,22.97
2018-06-10T15:08:31.584Z,23.00
2018-06-10T15:13:33.871Z,23.15
2018-06-10T15:18:36.092Z,23.12
2018-06-10T15:23:38.273Z,23.26
2018-06-10T15:28:40.480Z,22.97
2018-06-10T15:33:42.954Z,23.03
2018-06-10T15:38:45.179Z,23.09
2018-06-10T15:43:47.379Z,23.17
2018-06-10T15:48:49.636Z,23.20
2018-06-10T15:53:51.877Z,23.25
2018-06-10T15:58:54.118Z,23.19
2018-06-10T16:03:56.352Z,23.26
2018-06-10T16:08:58.519Z,23.23
2018-06-10T16:14:00.713Z,23.19
2018-06-10T16:19:02.972Z,23.17
2018-06-10T16:24:05.149Z,23.29
2018-06-10T16:29:07.380Z,23.36
2018-06-10T16:34:09.617Z,23.32
2018-06-10T16:39:11.854Z,23.38
2018-06-10T16:44:14.137Z,23.53
2018-06-10T16:49:16.423Z,23.32
2018-06-10T16:54:18.629Z,23.45
2018-06-10T16:59:20.890Z,23.44
2018-06-10T17:04:23.093Z,23.21
2018-06-10T17:09:25.263Z,23.40
2018-06-10T17:14:27.491Z,23.48
2018-06-10T17:19:29.712Z,23.55
2018-06-10T17:24:32.266Z,23.41
2018-06-10T17:29:34.464Z,23.19
2018-06-10T17:34:36.718Z,22.84
2018-06-10T17:39:38.902Z,22.56
2018-06-10T17:44:41.169Z,22.73
2018-06-10T17:49:43.361Z,23.13
2018-06-10T17:54:45.602Z,22.97
2018-06-10T17:59:47.924Z,22.77
2018-06-10T18:04:50.178Z,22.59
2018-06-10T18:09:52.383Z,22.60
2018-06-10T18:14:54.686Z,22.53
2018-06-10T18:19:56.959Z,22.45
2018-06-10T18:24:59.145Z,22.37
2018-06-10T18:30:01.409Z,22.31
2018-06-10T18:35:04.269Z,22.24
2018-06-10T18:40:06.496Z,22.19
2018-06-10T18:45:08.729Z,22.20
2018-06-10T18:50:10.944Z,22.15
2018-06-10T18:55:13.165Z,22.07
2018-06-10T19:00:15.490Z,22.03
2018-06-10T19:05:17.710Z,22.21
2018-06-10T19:10:19.952Z,22.08
2018-06-10T19:15:22.432Z,22.10
2018-06-10T19:20:24.723Z,21.89
2018-06-10T19:25:28.115Z,21.67
2018-06-10T19:30:32.778Z,21.33
2018-06-10T19:35:35.228Z,21.17
2018-06-10T19:40:37.565Z,20.96
2018-06-10T19:45:39.778Z,20.76
2018-06-10T19:50:42.402Z,20.71
2018-06-10T19:55:45.500Z,20.67
2018-06-10T20:00:47.905Z,20.44
2018-06-10T20:05:50.186Z,20.31
2018-06-10T20:10:52.431Z,20.13
2018-06-10T20:15:54.695Z,20.01
2018-06-10T20:20:56.934Z,20.12
2018-06-10T20:25:59.184Z,19.88
2018-06-10T20:31:01.478Z,19.91
2018-06-10T20:36:03.897Z,19.91
2018-06-10T20:41:06.096Z,19.85
2018-06-10T20:46:08.340Z,19.71
2018-06-10T20:51:10.560Z,19.72
2018-06-10T20:56:12.806Z,19.71
2018-06-10T21:01:15.055Z,19.65
2018-06-10T21:06:17.306Z,19.57
2018-06-10T21:11:19.536Z,19.59
2018-06-10T21:16:21.741Z,19.51
2018-06-10T21:21:24.389Z,19.56
2018-06-10T21:26:26.603Z,19.43
2018-06-10T21:31:28.733Z,19.52
2018-06-10T21:36:30.945Z,19.55
2018-06-10T21:41:33.205Z,19.53
2018-06-10T21:46:35.344Z,19.52
2018-06-10T21:51:37.504Z,19.46
2018-06-10T21:56:39.680Z,19.45
2018-06-10T22:01:41.977Z,19.44
2018-06-10T22:06:44.185Z,19.25
2018-06-10T22:11:46.412Z,19.36
2018-06-10T22:16:48.600Z,19.43
2018-06-10T22:21:50.737Z,19.30
2018-06-10T22:26:53.722Z,19.12
2018-06-10T22:31:55.919Z,19.20
2018-06-10T22:36:58.072Z,19.29
2018-06-10T22:42:00.213Z,19.17
2018-06-10T22:47:02.419Z,19.10
2018-06-10T22:52:04.776Z,18.95
2018-06-10T22:57:07.345Z,18.81
2018-06-10T23:02:09.944Z,18.82
2018-06-10T23:07:12.171Z,18.77
2018-06-10T23:12:14.300Z,18.72
2018-06-10T23:17:16.443Z,18.78
2018-06-10T23:22:18.578Z,18.92
2018-06-10T23:27:20.857Z,18.68
2018-06-10T23:32:22.967Z,18.58
2018-06-10T23:37:25.127Z,18.64
2018-06-10T23:42:27.284Z,18.46
2018-06-10T23:47:29.450Z,18.13
2018-06-10T23:52:31.579Z,18.21
2018-06-10T23:57:33.728Z,18.17
